Flight Track Log - Related Links

Times and Time Zones

All times are in EDT time to prevent confusion due to time zone crossing. See the N680AN flight status page for this flight to view local times or setup timezone preferences in your user account.

Time Position Orientation Groundspeed Altitude Reporting Facility
EDT Latitude Longitude Course Direction KTS MPH feet Rate Location/Type
Sat 09:57:19 PM 25.7983 -80.2675 318° Northwest 164 189 900  Level Miami Center
Sat 09:58:03 PM 25.8033 -80.2308 81° East 169 194 2,400 2,186 Climbing Miami Center
Sat 09:59:00 PM 26.0068 -80.5368 310° West  Level FlightAware Approximate
Sat 09:59:39 PM 25.8819 -80.2606 341° North 253 291 6,000  Level Miami Center
Sat 10:00:00 PM 26.0775 -80.6275 318° Northwest  Level FlightAware Approximate
Sat 10:00:40 PM 25.9219 -80.3381 300° West 253 291 8,900  Level Miami Center
Sat 10:01:00 PM 26.1579 -80.7079 318° Northwest  Level FlightAware Approximate
Sat 10:01:41 PM 25.9658 -80.4225 300° West 292 336 11,100  Level Miami Center
Sat 10:02:00 PM 26.2383 -80.7884 318° Northwest  Level FlightAware Approximate
Sat 10:02:42 PM 26.0158 -80.5119 302° West 323 372 13,200  Level Miami Center
Sat 10:03:39 PM 26.0819 -80.6225 304° West 369 425 15,700 2,462 Climbing Miami Center
Sat 10:04:39 PM 26.1592 -80.7106 314° West 380 437 18,000 2,033 Climbing Miami Center
Sat 10:05:40 PM 26.2242 -80.7753 318° Northwest 392 451 19,800 2,083 Climbing Miami Center
Sat 10:06:40 PM 26.3156 -80.8733 316° Northwest 408 470 22,200 2,231 Climbing Miami Center
Sat 10:07:41 PM 26.4111 -80.9692 318° Northwest 413 475 24,300 1,934 Climbing Miami Center
Sat 10:08:41 PM 26.5025 -81.0606 318° Northwest 420 483 26,100 1,650 Climbing Miami Center
Sat 10:09:41 PM 26.5917 -81.1519 318° Northwest 428 493 27,600 1,525 Climbing Miami Center
Sat 10:10:39 PM 26.6828 -81.2461 317° Northwest 434 499 29,100 1,450 Climbing Miami Center
Sat 10:11:41 PM 26.7547 -81.3464 309° West 443 510 30,500 1,475 Climbing Miami Center
Sat 10:12:41 PM 26.8053 -81.4739 294° West 453 521 32,100 1,664 Climbing Miami Center
Sat 10:13:40 PM 26.8611 -81.6133 294° West 453 521 33,800 1,513 Climbing Miami Center
Sat 10:14:40 PM 26.9072 -81.7317 294° West 453 521 35,100 1,091 Climbing Miami Center
Sat 10:15:41 PM 26.9553 -81.8572 293° West 453 521 36,000 443 Climbing Miami Center
Sat 10:16:42 PM 27.0053 -81.9758 295° West 437 503 36,000  Level Miami Center
Sat 10:17:39 PM 27.0533 -82.0969 294° West 424 488 36,000  Level Miami Center
Sat 10:18:40 PM 27.1047 -82.2297 294° West 424 488 36,000  Level Miami Center
Sat 10:19:42 PM 27.1486 -82.3367 295° West 424 488 36,000  Level Miami Center
Sat 10:20:42 PM 27.2025 -82.4606 296° West 430 495 36,000  Level Miami Center
Sat 10:21:41 PM 27.2494 -82.5914 292° West 425 489 36,000  Level Miami Center
Sat 10:22:42 PM 27.2947 -82.7103 293° West 420 483 36,000  Level Miami Center
Sat 10:23:41 PM 27.3400 -82.8294 293° West 420 483 36,000  Level Miami Center
Sat 10:24:42 PM 27.3892 -82.9536 294° West 428 493 36,000  Level Miami Center
Sat 10:25:40 PM 27.4339 -83.0753 293° West 428 493 36,000  Level Miami Center
Sat 10:26:40 PM 27.4789 -83.1922 293° West 422 486 36,000  Level Miami Center
Sat 10:27:41 PM 27.5256 -83.3142 293° West 422 486 36,000  Level Miami Center
Sat 10:28:42 PM 27.5722 -83.4361 293° West 422 486 36,000  Level Miami Center
Sat 10:29:40 PM 27.6147 -83.5578 292° West 422 486 36,000  Level Miami Center
Sat 10:30:41 PM 27.6633 -83.6778 295° West 422 486 36,000  Level Miami Center
Sat 10:31:42 PM 27.7097 -83.7978 294° West 422 486 36,000  Level Miami Center
Sat 10:32:42 PM 27.7517 -83.9197 291° West 422 486 36,000  Level Miami Center
Sat 10:33:40 PM 27.7978 -84.0400 293° West 422 486 36,000  Level Miami Center
Sat 10:34:42 PM 27.8461 -84.1581 295° West 422 486 36,000  Level Miami Center
Sat 10:36:52 PM 27.9447 -84.4289 292° West 418 481 36,000  Level Jacksonville Center
Sat 10:37:52 PM 27.9869 -84.5472 292° West 412 474 36,000  Level Jacksonville Center
Sat 10:38:52 PM 28.0333 -84.6678 294° West 417 480 36,000  Level Jacksonville Center
Sat 10:39:52 PM 28.0714 -84.7789 291° West 417 480 36,000  Level Jacksonville Center
Sat 10:40:52 PM 28.1175 -84.8997 293° West 417 480 36,000  Level Jacksonville Center
Sat 10:41:52 PM 28.1617 -85.0208 292° West 417 480 36,000  Level Jacksonville Center
Sat 10:42:52 PM 28.2033 -85.1442 291° West 417 480 36,000  Level Jacksonville Center
Sat 10:43:52 PM 28.2492 -85.2631 294° West 417 480 36,000  Level Jacksonville Center
Sat 10:44:52 PM 28.2928 -85.3842 292° West 412 474 36,000  Level Jacksonville Center
Sat 10:45:52 PM 28.3364 -85.5008 293° West 412 474 36,000  Level Jacksonville Center
Sat 10:46:52 PM 28.3797 -85.6222 292° West 412 474 36,000  Level Jacksonville Center
Sat 10:47:52 PM 28.4231 -85.7461 292° West 417 480 36,000  Level Jacksonville Center
Sat 10:48:52 PM 28.4642 -85.8606 292° West 412 474 36,000  Level Jacksonville Center
Sat 10:49:52 PM 28.5072 -85.9847 292° West 412 474 36,000  Level Jacksonville Center
Sat 10:50:52 PM 28.5500 -86.1089 291° West 412 474 36,000  Level Jacksonville Center
Sat 10:51:52 PM 28.5928 -86.2261 293° West 418 481 36,000  Level Jacksonville Center
Sat 10:52:52 PM 28.6375 -86.3506 292° West 411 473 36,000  Level Jacksonville Center
Sat 10:53:52 PM 28.6803 -86.4703 292° West 411 473 36,000  Level Jacksonville Center
Sat 10:54:52 PM 28.7228 -86.5903 292° West 418 481 36,000  Level Jacksonville Center
Sat 10:55:52 PM 28.7631 -86.7125 291° West 413 475 36,000  Level Jacksonville Center
Sat 10:58:17 PM 28.8642 -87.0042 292° West 415 478 36,000  Level Houston Center
Sat 10:59:17 PM 28.9078 -87.1269 292° West 418 481 36,000  Level Houston Center
Sat 11:00:18 PM 28.9492 -87.2497 291° West 415 478 36,000  Level Houston Center
Sat 11:01:18 PM 28.9911 -87.3728 291° West 416 479 36,000  Level Houston Center
Sat 11:02:19 PM 29.0328 -87.4961 291° West 416 479 36,000  Level Houston Center
Sat 11:03:19 PM 29.0747 -87.6189 291° West 416 479 36,000  Level Houston Center
Sat 11:04:20 PM 29.1153 -87.7419 291° West 415 478 36,000  Level Houston Center
Sat 11:05:20 PM 29.1578 -87.8650 292° West 417 480 36,000  Level Houston Center
Sat 11:06:21 PM 29.1989 -87.9878 291° West 415 478 36,000  Level Houston Center
Sat 11:07:21 PM 29.2458 -88.1275 291° West 416 479 36,000  Level Houston Center
Sat 11:08:22 PM 29.3061 -88.2408 301° West 421 484 36,000  Level Houston Center
Sat 11:09:22 PM 29.3783 -88.3492 307° West 417 480 36,000  Level Houston Center
Sat 11:10:23 PM 29.4475 -88.4514 308° West 422 486 36,000  Level Houston Center
Sat 11:11:23 PM 29.5178 -88.5578 307° West 420 483 36,000  Level Houston Center
Sat 11:12:24 PM 29.5875 -88.6653 307° West 421 484 36,000  Level Houston Center
Sat 11:13:24 PM 29.6564 -88.7719 307° West 418 481 36,000  Level Houston Center
Sat 11:14:25 PM 29.7264 -88.8797 307° West 420 483 36,000  Level Houston Center
Sat 11:15:25 PM 29.7967 -88.9883 307° West 424 488 36,000  Level Houston Center
Sat 11:16:26 PM 29.8681 -89.0956 308° West 424 488 36,000  Level Houston Center
Sat 11:17:26 PM 29.9386 -89.2042 307° West 425 489 36,000  Level Houston Center
Sat 11:18:26 PM 30.0094 -89.3144 307° West 428 493 36,000  Level Houston Center
Sat 11:19:27 PM 30.0794 -89.4233 307° West 426 490 36,000  Level Houston Center
Sat 11:20:27 PM 30.1481 -89.5286 307° West 417 480 36,000  Level Houston Center
Sat 11:21:28 PM 30.2136 -89.6292 307° West 401 461 36,000 397 Level Houston Center
Sat 11:22:28 PM 30.2797 -89.7372 305° West 391 450 36,800 992 Climbing Houston Center
Sat 11:23:29 PM 30.3444 -89.8383 307° West 391 450 38,000 595 Climbing Houston Center
Sat 11:24:29 PM 30.4136 -89.9414 308° West 390 449 38,000  Level Houston Center
Sat 11:25:30 PM 30.4750 -90.0356 307° West 366 421 38,000  Level Houston Center
Sat 11:26:30 PM 30.5333 -90.1278 306° West 356 410 38,000  Level Houston Center
Sat 11:27:31 PM 30.5908 -90.2181 307° West 348 400 38,000  Level Houston Center
Sat 11:28:31 PM 30.6489 -90.3089 307° West 348 400 38,000  Level Houston Center
Sat 11:29:31 PM 30.7056 -90.3983 306° West 344 396 38,000  Level Houston Center
Sat 11:30:32 PM 30.7619 -90.4883 306° West 345 397 38,000  Level Houston Center
Sat 11:31:32 PM 30.8194 -90.5808 306° West 353 406 38,000  Level Houston Center
Sat 11:32:33 PM 30.8778 -90.6750 306° West 358 412 38,000  Level Houston Center
Sat 11:33:33 PM 30.9369 -90.7700 306° West 362 417 38,000  Level Houston Center
Sat 11:34:34 PM 30.9975 -90.8656 306° West 366 421 38,000  Level Houston Center
Sat 11:35:34 PM 31.0586 -90.9617 307° West 369 425 38,000  Level Houston Center
Sat 11:36:34 PM 31.1178 -91.0594 305° West 371 427 38,000  Level Houston Center
Sat 11:37:35 PM 31.1781 -91.1561 306° West 367 422 38,000  Level Houston Center
Sat 11:38:35 PM 31.2375 -91.2536 306° West 368 423 38,000  Level Houston Center
Sat 11:39:36 PM 31.3058 -91.3597 307° West 372 428 38,000  Level Houston Center
Sat 11:40:36 PM 31.3642 -91.4544 306° West 362 417 38,000  Level Houston Center
Sat 11:41:37 PM 31.4231 -91.5481 306° West 359 413 38,000  Level Houston Center
Sat 11:42:37 PM 31.4744 -91.6472 301° West 359 413 38,000  Level Houston Center
Sat 11:43:38 PM 31.5139 -91.7542 293° West 358 412 38,000  Level Houston Center
Sat 11:44:38 PM 31.5572 -91.8600 296° West 360 414 38,000  Level Houston Center
Sat 11:45:38 PM 31.6011 -91.9658 296° West 362 417 38,000  Level Houston Center
Sat 11:46:39 PM 31.6469 -92.0764 296° West 361 415 38,000  Level Houston Center
Sat 11:47:39 PM 31.6942 -92.1850 297° West 372 428 38,000  Level Houston Center
Sat 11:48:40 PM 31.7347 -92.2925 294° West 367 422 38,000  Level Houston Center
Sat 11:49:40 PM 31.7736 -92.4017 293° West 364 419 38,000  Level Houston Center
Sat 11:50:41 PM 31.8164 -92.5111 295° West 368 423 38,000  Level Houston Center
Sat 11:51:41 PM 31.8564 -92.6192 294° West 365 420 38,000  Level Houston Center
Sat 11:52:42 PM 31.8981 -92.7267 295° West 363 418 38,000  Level Houston Center
Sat 11:53:42 PM 31.9608 -92.8511 301° West 369 425 38,000  Level Houston Center
Sat 11:54:42 PM 32.0144 -92.9533 302° West 368 423 38,000  Level Houston Center
Sat 11:55:43 PM 32.0625 -93.0478 301° West 365 420 38,000  Level Houston Center
Sat 11:56:42 PM 32.1183 -93.1528 302° West 368 423 38,000  Level Fort Worth Center
Sat 11:57:42 PM 32.1736 -93.2436 306° West 364 419 38,000  Level Fort Worth Center
Sat 11:58:42 PM 32.2497 -93.3383 314° West 369 425 38,000  Level Fort Worth Center
Sat 11:59:42 PM 32.3419 -93.4178 324° Northwest 390 449 38,000  Level Fort Worth Center
Sun 12:00:42 AM 32.4344 -93.4997 323° Northwest 400 460 38,000  Level Fort Worth Center
Sun 12:01:42 AM 32.5203 -93.5800 322° Northwest 407 468 38,000  Level Fort Worth Center
Sun 12:02:42 AM 32.6106 -93.6622 323° Northwest 407 468 38,000  Level Fort Worth Center
Sun 12:03:42 AM 32.6983 -93.7403 323° Northwest 407 468 38,000  Level Fort Worth Center
Sun 12:04:42 AM 32.7822 -93.8256 319° Northwest 407 468 38,000  Level Fort Worth Center
Sun 12:05:42 AM 32.8603 -93.9314 311° West 395 455 38,000  Level Fort Worth Center
Sun 12:06:42 AM 32.9256 -94.0303 308° West 389 448 38,000  Level Fort Worth Center
Sun 12:07:42 AM 32.9972 -94.1292 311° West 389 448 38,000  Level Fort Worth Center
Sun 12:08:42 AM 33.0667 -94.2306 309° West 389 448 38,000  Level Fort Worth Center
Sun 12:09:42 AM 33.1381 -94.3297 311° West 389 448 38,000  Level Fort Worth Center
Sun 12:10:42 AM 33.2114 -94.4314 311° West 394 453 38,000  Level Fort Worth Center
Sun 12:11:42 AM 33.2825 -94.5311 310° West 394 453 38,000  Level Fort Worth Center
Sun 12:12:42 AM 33.3558 -94.6356 310° West 399 459 38,000  Level Fort Worth Center
Sun 12:13:42 AM 33.4269 -94.7403 309° West 399 459 38,000  Level Fort Worth Center
Sun 12:14:42 AM 33.5000 -94.8428 311° West 406 467 38,000  Level Fort Worth Center
Sun 12:15:42 AM 33.5753 -94.9478 311° West 406 467 38,000  Level Fort Worth Center
Sun 12:16:42 AM 33.6483 -95.0531 310° West 413 475 38,000  Level Fort Worth Center
Sun 12:17:42 AM 33.7169 -95.1586 308° West 413 475 38,000  Level Fort Worth Center
Sun 12:18:42 AM 33.7897 -95.2617 310° West 413 475 38,000  Level Fort Worth Center
Sun 12:19:42 AM 33.8603 -95.3675 309° West 413 475 38,000  Level Fort Worth Center
Sun 12:20:42 AM 33.9308 -95.4683 310° West 408 470 38,000  Level Fort Worth Center
Sun 12:21:42 AM 34.0011 -95.5694 310° West 408 470 38,000  Level Fort Worth Center
Sun 12:22:42 AM 34.0736 -95.6733 310° West 403 464 38,000  Level Fort Worth Center
Sun 12:23:42 AM 34.1378 -95.7800 306° West 397 457 38,000  Level Fort Worth Center
Sun 12:24:42 AM 34.2100 -95.8817 311° West 392 451 38,000  Level Fort Worth Center
Sun 12:25:42 AM 34.2800 -95.9858 309° West 392 451 38,000  Level Fort Worth Center
Sun 12:26:42 AM 34.3500 -96.0903 309° West 397 457 38,000  Level Fort Worth Center
Sun 12:27:42 AM 34.4242 -96.1975 310° West 402 463 38,000  Level Fort Worth Center
Sun 12:28:42 AM 34.4981 -96.3047 310° West 412 474 38,000  Level Fort Worth Center
Sun 12:29:42 AM 34.5700 -96.4122 309° West 412 474 38,000  Level Fort Worth Center
Sun 12:30:43 AM 34.6417 -96.5225 308° West 446 513 38,000  Level Fort Worth Center
Sun 12:31:43 AM 34.7156 -96.6331 309° West 439 505 38,000  Level Fort Worth Center
Sun 12:32:43 AM 34.7869 -96.7436 308° West 434 499 38,000  Level Fort Worth Center
Sun 12:33:42 AM 34.8586 -96.8517 309° West 417 480 38,000  Level Fort Worth Center
Sun 12:34:42 AM 34.9300 -96.9603 309° West 417 480 38,000  Level Fort Worth Center
Sun 12:35:42 AM 34.9992 -97.0689 308° West 417 480 38,000  Level Fort Worth Center
Sun 12:36:42 AM 35.0722 -97.1778 309° West 417 480 38,000  Level Fort Worth Center
Sun 12:38:25 AM 35.1894 -97.3536 309° West 408 470 38,000  Level Kansas City Center
Sun 12:39:25 AM 35.2608 -97.4656 308° West 409 471 38,000  Level Kansas City Center
Sun 12:40:26 AM 35.3342 -97.5778 309° West 413 475 38,000  Level Kansas City Center
Sun 12:41:26 AM 35.3994 -97.6942 305° West 413 475 38,000  Level Kansas City Center
Sun 12:42:26 AM 35.4608 -97.8136 302° West 411 473 38,000  Level Kansas City Center
Sun 12:43:26 AM 35.5228 -97.9333 302° West 413 475 38,000  Level Kansas City Center
Sun 12:44:26 AM 35.5825 -98.0525 302° West 412 474 38,000  Level Kansas City Center
Sun 12:45:26 AM 35.6406 -98.1714 301° West 409 471 38,000  Level Kansas City Center
Sun 12:46:27 AM 35.6967 -98.2889 300° West 402 463 38,000  Level Kansas City Center
Sun 12:47:27 AM 35.7533 -98.4103 300° West 404 465 38,000  Level Kansas City Center
Sun 12:48:27 AM 35.8108 -98.5297 301° West 405 466 38,000  Level Kansas City Center
Sun 12:49:27 AM 35.8675 -98.6494 300° West 405 466 38,000  Level Kansas City Center
Sun 12:50:27 AM 35.9239 -98.7658 301° West 405 466 38,000  Level Kansas City Center
Sun 12:51:27 AM 35.9811 -98.8861 300° West 406 467 38,000  Level Kansas City Center
Sun 12:52:27 AM 36.0381 -99.0069 300° West 407 468 38,000  Level Kansas City Center
Sun 12:53:28 AM 36.0958 -99.1272 301° West 408 470 38,000  Level Kansas City Center
Sun 12:54:28 AM 36.1531 -99.2469 301° West 407 468 38,000  Level Kansas City Center
Sun 12:55:28 AM 36.2086 -99.3672 300° West 405 466 38,000  Level Kansas City Center
Sun 12:56:28 AM 36.2631 -99.4828 300° West 405 466 38,000  Level Kansas City Center
Sun 12:57:28 AM 36.3197 -99.6042 300° West 406 467 38,000  Level Kansas City Center
Sun 12:58:28 AM 36.3758 -99.7239 300° West 402 463 38,000  Level Kansas City Center
Sun 12:59:29 AM 36.4325 -99.8450 300° West 405 466 38,000  Level Kansas City Center
Sun 01:00:29 AM 36.4878 -99.9669 299° West 404 465 38,000  Level Kansas City Center
Sun 01:01:29 AM 36.5533 -100.0803 306° West 404 465 38,000  Level Kansas City Center
Sun 01:02:29 AM 36.6269 -100.1875 311° West 405 466 38,000  Level Kansas City Center
Sun 01:03:29 AM 36.6981 -100.2969 309° West 404 465 38,000  Level Kansas City Center
Sun 01:04:29 AM 36.7728 -100.4108 309° West 405 466 38,000  Level Kansas City Center
Sun 01:05:30 AM 36.8417 -100.5161 309° West 406 467 38,000  Level Kansas City Center
Sun 01:06:30 AM 36.9211 -100.6389 309° West 406 467 38,000  Level Kansas City Center
Sun 01:07:30 AM 36.9889 -100.7447 309° West 407 468 38,000  Level Kansas City Center
Sun 01:08:30 AM 37.0572 -100.8506 309° West 407 468 38,000  Level Kansas City Center
Sun 01:09:30 AM 37.1264 -100.9572 309° West 409 471 38,000  Level Kansas City Center
Sun 01:10:30 AM 37.2075 -101.0819 309° West 411 473 38,000  Level Kansas City Center
Sun 01:11:30 AM 37.2756 -101.1897 308° West 410 472 38,000  Level Kansas City Center
Sun 01:12:31 AM 37.3453 -101.2975 309° West 411 473 38,000  Level Kansas City Center
Sun 01:13:31 AM 37.4142 -101.4056 309° West 411 473 38,000  Level Kansas City Center
Sun 01:14:31 AM 37.4831 -101.5142 309° West 413 475 38,000  Level Kansas City Center
Sun 01:15:31 AM 37.5639 -101.6431 308° West 416 479 38,000  Level Kansas City Center
Sun 01:16:31 AM 37.6336 -101.7531 309° West 417 480 38,000  Level Kansas City Center
Sun 01:17:38 AM 37.7164 -101.8828 309° West 421 484 38,000  Level Denver Center
Sun 01:18:38 AM 37.7847 -101.9931 308° West 417 480 38,000  Level Denver Center
Sun 01:19:38 AM 37.8539 -102.1031 309° West 417 480 38,000  Level Denver Center
Sun 01:20:38 AM 37.9339 -102.2331 308° West 418 481 38,000  Level Denver Center
Sun 01:21:39 AM 38.0031 -102.3436 308° West 418 481 38,000  Level Denver Center
Sun 01:22:39 AM 38.0717 -102.4531 309° West 417 480 38,000  Level Denver Center
Sun 01:23:39 AM 38.1497 -102.5831 307° West 414 476 38,000  Level Denver Center
Sun 01:24:39 AM 38.2186 -102.6936 308° West 416 479 38,000  Level Denver Center
Sun 01:25:39 AM 38.2844 -102.8050 307° West 413 475 38,000  Level Denver Center
Sun 01:26:40 AM 38.3522 -102.9131 309° West 406 467 38,000  Level Denver Center
Sun 01:27:40 AM 38.4303 -103.0400 308° West 408 470 38,000  Level Denver Center
Sun 01:28:40 AM 38.4964 -103.1522 307° West 412 474 38,000  Level Denver Center
Sun 01:29:40 AM 38.5656 -103.2636 308° West 416 479 38,000  Level Denver Center
Sun 01:30:41 AM 38.6419 -103.3922 307° West 423 487 38,000  Level Denver Center
Sun 01:31:41 AM 38.7158 -103.5156 308° West 424 488 38,000  Level Denver Center
Sun 01:32:41 AM 38.7869 -103.6344 308° West 426 490 38,000  Level Denver Center
Sun 01:33:41 AM 38.8572 -103.7558 307° West 423 487 38,000  Level Denver Center
Sun 01:34:41 AM 38.9289 -103.8767 307° West 421 484 38,000  Level Denver Center
Sun 01:35:42 AM 38.9981 -103.9992 306° West 420 483 38,000  Level Denver Center
Sun 01:36:42 AM 39.0514 -104.1042 303° West 417 480 38,000  Level Denver Center
Sun 01:37:42 AM 39.1122 -104.2342 301° West 420 483 38,000  Level Denver Center
Sun 01:38:42 AM 39.1736 -104.3631 302° West 416 479 38,000  Level Denver Center
Sun 01:39:43 AM 39.2353 -104.4897 302° West 411 473 38,000  Level Denver Center
Sun 01:40:43 AM 39.2969 -104.6181 302° West 415 478 38,000  Level Denver Center
Sun 01:41:43 AM 39.3581 -104.7467 302° West 412 474 38,000  Level Denver Center
Sun 01:42:43 AM 39.4206 -104.8778 302° West 418 481 38,000  Level Denver Center
Sun 01:43:43 AM 39.4814 -105.0094 301° West 418 481 38,000  Level Denver Center
Sun 01:44:44 AM 39.5425 -105.1406 301° West 419 482 38,000  Level Denver Center
Sun 01:45:44 AM 39.6028 -105.2697 301° West 413 475 38,000  Level Denver Center
Sun 01:46:44 AM 39.6631 -105.3997 301° West 417 480 38,000  Level Denver Center
Sun 01:47:44 AM 39.7231 -105.5289 301° West 416 479 38,000  Level Denver Center
Sun 01:48:45 AM 39.7828 -105.6581 301° West 414 476 38,000  Level Denver Center
Sun 01:49:45 AM 39.8417 -105.7869 301° West 410 472 38,000  Level Denver Center
Sun 01:50:45 AM 39.9017 -105.9147 302° West 409 471 38,000  Level Denver Center
Sun 01:51:45 AM 39.9517 -106.0217 301° West 410 472 38,000  Level Denver Center
Sun 01:52:46 AM 40.0094 -106.1508 300° West 410 472 38,000  Level Denver Center
Sun 01:53:46 AM 40.0667 -106.2797 300° West 407 468 38,000  Level Denver Center
Sun 01:54:46 AM 40.1242 -106.4111 300° West 412 474 38,000  Level Denver Center
Sun 01:55:46 AM 40.1831 -106.5431 300° West 409 471 38,000  Level Denver Center
Sun 01:56:46 AM 40.2447 -106.6786 301° West 410 472 38,000  Level Denver Center
Sun 01:57:47 AM 40.3011 -106.8072 300° West 408 470 38,000  Level Denver Center
Sun 01:58:47 AM 40.3567 -106.9311 301° West 405 466 38,000  Level Denver Center
Sun 01:59:47 AM 40.4094 -107.0528 300° West 404 465 38,000  Level Denver Center
Sun 02:00:47 AM 40.4725 -107.1964 300° West 406 467 38,000  Level Denver Center
Sun 02:01:48 AM 40.5261 -107.3194 300° West 407 468 38,000  Level Denver Center
Sun 02:02:48 AM 40.5808 -107.4408 301° West 405 466 38,000  Level Denver Center
Sun 02:03:48 AM 40.6461 -107.5828 301° West 406 467 38,000  Level Denver Center
Sun 02:04:48 AM 40.7003 -107.7047 300° West 405 466 38,000  Level Denver Center
Sun 02:05:49 AM 40.7542 -107.8258 300° West 406 467 38,000  Level Denver Center
Sun 02:06:49 AM 40.8097 -107.9475 301° West 404 465 38,000  Level Denver Center
Sun 02:07:49 AM 40.8733 -108.0925 300° West 407 468 38,000  Level Denver Center
Sun 02:08:50 AM 40.9289 -108.2150 301° West 407 468 38,000  Level Denver Center
Sun 02:10:02 AM 41.0014 -108.3797 300° West 406 467 38,000  Level Denver Center
Sun 02:11:01 AM 41.0539 -108.5042 299° West 405 466 38,000  Level Salt Lake Center
Sun 02:12:01 AM 41.1086 -108.6286 300° West 407 468 38,000  Level Salt Lake Center
Sun 02:13:02 AM 41.1631 -108.7525 300° West 406 467 38,000  Level Salt Lake Center
Sun 02:14:02 AM 41.2261 -108.8978 300° West 406 467 38,000  Level Salt Lake Center
Sun 02:15:02 AM 41.2803 -109.0231 300° West 407 468 38,000  Level Salt Lake Center
Sun 02:16:03 AM 41.3347 -109.1497 300° West 405 466 38,000  Level Salt Lake Center
Sun 02:17:03 AM 41.3894 -109.2794 299° West 410 472 38,000  Level Salt Lake Center
Sun 02:18:03 AM 41.4436 -109.4056 300° West 407 468 38,000  Level Salt Lake Center
Sun 02:19:04 AM 41.5058 -109.5483 300° West 399 459 38,000  Level Salt Lake Center
Sun 02:20:04 AM 41.5581 -109.6719 299° West 399 459 38,000  Level Salt Lake Center
Sun 02:21:04 AM 41.6100 -109.7944 300° West 397 457 38,000  Level Salt Lake Center
Sun 02:22:05 AM 41.6708 -109.9397 299° West 400 460 38,000  Level Salt Lake Center
Sun 02:23:05 AM 41.7228 -110.0642 299° West 400 460 38,000  Level Salt Lake Center
Sun 02:24:05 AM 41.7744 -110.1900 299° West 402 463 38,000  Level Salt Lake Center
Sun 02:25:06 AM 41.8261 -110.3139 299° West 398 458 38,000  Level Salt Lake Center
Sun 02:26:06 AM 41.8853 -110.4597 299° West 398 458 38,000  Level Salt Lake Center
Sun 02:27:06 AM 41.9369 -110.5833 299° West 397 457 38,000  Level Salt Lake Center
Sun 02:28:07 AM 41.9869 -110.7081 298° West 395 455 38,000  Level Salt Lake Center
Sun 02:29:07 AM 42.0464 -110.8542 299° West 399 459 38,000  Level Salt Lake Center
Sun 02:30:07 AM 42.0958 -110.9792 298° West 400 460 38,000  Level Salt Lake Center
Sun 02:31:07 AM 42.1489 -111.1086 299° West 399 459 38,000  Level Salt Lake Center
Sun 02:32:08 AM 42.2017 -111.2400 299° West 399 459 38,000  Level Salt Lake Center
Sun 02:33:08 AM 42.2544 -111.3722 298° West 402 463 38,000 500 Level Salt Lake Center
Sun 02:34:08 AM 42.3061 -111.5031 298° West 398 458 39,000 893 Climbing Salt Lake Center
Sun 02:35:09 AM 42.3575 -111.6319 298° West 393 452 39,800 496 Climbing Salt Lake Center
Sun 02:36:09 AM 42.4111 -111.7653 299° West 403 464 40,000 100 Climbing Salt Lake Center
Sun 02:37:09 AM 42.4636 -111.9000 298° West 406 467 40,000  Level Salt Lake Center
Sun 02:38:10 AM 42.5153 -112.0264 299° West 390 449 40,000  Level Salt Lake Center
Sun 02:39:10 AM 42.5806 -112.1447 307° West 392 451 40,000  Level Salt Lake Center
Sun 02:40:10 AM 42.6469 -112.2694 306° West 408 470 40,000  Level Salt Lake Center
Sun 02:41:11 AM 42.7203 -112.4064 306° West 409 471 40,000  Level Salt Lake Center
Sun 02:42:11 AM 42.7833 -112.5281 305° West 411 473 40,000  Level Salt Lake Center
Sun 02:43:11 AM 42.8467 -112.6478 306° West 408 470 40,000  Level Salt Lake Center
Sun 02:44:12 AM 42.9175 -112.7833 306° West 395 455 40,000  Level Salt Lake Center
Sun 02:45:12 AM 42.9775 -112.9003 305° West 393 452 40,000  Level Salt Lake Center
Sun 02:46:12 AM 43.0358 -113.0150 305° West 387 445 40,000  Level Salt Lake Center
Sun 02:47:13 AM 43.1033 -113.1467 305° West 380 437 40,000  Level Salt Lake Center
Sun 02:48:13 AM 43.1619 -113.2592 306° West 379 436 40,000  Level Salt Lake Center
Sun 02:49:13 AM 43.2197 -113.3744 305° West 382 440 40,000  Level Salt Lake Center
Sun 02:50:14 AM 43.2778 -113.4867 305° West 378 435 40,000  Level Salt Lake Center
Sun 02:51:14 AM 43.3464 -113.6222 305° West 386 444 40,000  Level Salt Lake Center
Sun 02:52:14 AM 43.4053 -113.7403 305° West 391 450 40,000  Level Salt Lake Center
Sun 02:53:15 AM 43.4650 -113.8614 304° West 399 459 40,000  Level Salt Lake Center
Sun 02:54:15 AM 43.5306 -113.9972 304° West 402 463 40,000  Level Salt Lake Center
Sun 02:55:15 AM 43.5900 -114.1181 304° West 398 458 40,000  Level Salt Lake Center
Sun 02:56:16 AM 43.6583 -114.2575 304° West 394 453 40,000  Level Salt Lake Center
Sun 02:57:16 AM 43.7183 -114.3736 306° West 389 448 40,000  Level Salt Lake Center
Sun 02:58:16 AM 43.7750 -114.4947 303° West 394 453 40,000  Level Salt Lake Center
Sun 02:59:17 AM 43.8356 -114.6106 306° West 389 448 40,000  Level Salt Lake Center
Sun 03:00:17 AM 43.9047 -114.7542 304° West 398 458 40,000  Level Salt Lake Center
Sun 03:01:17 AM 43.9636 -114.8767 304° West 400 460 40,000  Level Salt Lake Center
Sun 03:02:17 AM 44.0236 -114.9981 305° West 399 459 40,000  Level Salt Lake Center
Sun 03:03:18 AM 44.0911 -115.1431 303° West 399 459 40,000  Level Salt Lake Center
Sun 03:04:18 AM 44.1497 -115.2658 304° West 398 458 40,000  Level Salt Lake Center
Sun 03:05:18 AM 44.2078 -115.3864 304° West 393 452 40,000  Level Salt Lake Center
Sun 03:06:19 AM 44.2664 -115.5067 304° West 392 451 40,000 -149 Level Salt Lake Center
Sun 03:07:19 AM 44.3322 -115.6464 303° West 387 445 39,700 -700 Descending Salt Lake Center
Sun 03:08:19 AM 44.3886 -115.7644 304° West 384 442 38,600 -1,140 Descending Salt Lake Center
Sun 03:09:20 AM 44.4411 -115.8761 303° West 368 423 37,400 -2,083 Descending Salt Lake Center
Sun 03:10:20 AM 44.5031 -116.0089 303° West 368 423 34,400 -1,700 Descending Salt Lake Center
Sun 03:11:20 AM 44.5550 -116.1300 301° West 385 443 34,000 -198 Descending Salt Lake Center
Sun 03:12:21 AM 44.6139 -116.2731 300° West 385 443 34,000  Level Salt Lake Center
Sun 03:13:21 AM 44.6650 -116.3933 301° West 378 435 34,000  Level Salt Lake Center
Sun 03:14:21 AM 44.7158 -116.5131 301° West 375 432 34,000  Level Salt Lake Center
Sun 03:15:22 AM 44.7731 -116.6508 300° West 368 423 34,000  Level Salt Lake Center
Sun 03:16:22 AM 44.8236 -116.7686 301° West 368 423 34,000  Level Salt Lake Center
Sun 03:17:22 AM 44.8747 -116.8897 301° West 374 430 34,000  Level Salt Lake Center
Sun 03:18:23 AM 44.9250 -117.0106 300° West 375 432 34,000  Level Salt Lake Center
Sun 03:19:23 AM 44.9919 -117.1494 304° West 381 438 34,000  Level Salt Lake Center
Sun 03:19:38 AM 45.0031 -117.1692 309° West 384 442 34,000  Level Seattle Center
Sun 03:20:39 AM 45.0736 -117.3056 306° West 385 443 34,000  Level Seattle Center
Sun 03:21:39 AM 45.1325 -117.4242 305° West 385 443 34,000  Level Seattle Center
Sun 03:22:39 AM 45.1878 -117.5317 306° West 387 445 34,000  Level Seattle Center
Sun 03:23:39 AM 45.2508 -117.6544 306° West 387 445 34,000  Level Seattle Center
Sun 03:24:39 AM 45.3122 -117.7792 305° West 386 444 34,000  Level Seattle Center
Sun 03:25:39 AM 45.3753 -117.9044 306° West 390 449 34,000  Level Seattle Center
Sun 03:26:39 AM 45.4375 -118.0303 305° West 390 449 34,000  Level Seattle Center
Sun 03:27:39 AM 45.5008 -118.1572 305° West 394 453 34,000  Level Seattle Center
Sun 03:28:39 AM 45.5633 -118.2836 305° West 393 452 34,000  Level Seattle Center
Sun 03:29:39 AM 45.6244 -118.4117 304° West 393 452 34,000  Level Seattle Center
Sun 03:30:40 AM 45.6864 -118.5375 305° West 389 448 34,000  Level Seattle Center
Sun 03:31:40 AM 45.7617 -118.6900 305° West 392 451 34,000  Level Seattle Center
Sun 03:32:40 AM 45.8219 -118.8156 305° West 388 447 34,000  Level Seattle Center
Sun 03:33:40 AM 45.8822 -118.9414 305° West 386 444 34,000  Level Seattle Center
Sun 03:34:40 AM 45.9422 -119.0669 305° West 385 443 34,000  Level Seattle Center
Sun 03:35:40 AM 46.0025 -119.1928 305° West 384 442 34,000 -100 Level Seattle Center
Sun 03:36:40 AM 46.0633 -119.3181 305° West 384 442 33,800 -300 Descending Seattle Center
Sun 03:37:40 AM 46.1233 -119.4408 305° West 379 436 33,400 -400 Descending Seattle Center
Sun 03:38:40 AM 46.1808 -119.5647 304° West 375 432 33,000 -400 Descending Seattle Center
Sun 03:39:40 AM 46.2386 -119.6889 304° West 373 429 32,600 -446 Descending Seattle Center
Sun 03:40:41 AM 46.2972 -119.8158 304° West 379 436 32,100 -496 Descending Seattle Center
Sun 03:41:41 AM 46.3569 -119.9422 304° West 382 440 31,600 -450 Descending Seattle Center
Sun 03:42:41 AM 46.4153 -120.0658 304° West 376 433 31,200 -300 Descending Seattle Center
Sun 03:43:41 AM 46.4744 -120.1944 304° West 380 437 31,000 -200 Descending Seattle Center
Sun 03:44:41 AM 46.5336 -120.3214 304° West 382 440 30,800 -200 Descending Seattle Center
Sun 03:45:41 AM 46.5936 -120.4528 304° West 389 448 30,600 -150 Descending Seattle Center
Sun 03:46:41 AM 46.6511 -120.5803 303° West 382 440 30,500 -300 Descending Seattle Center
Sun 03:47:41 AM 46.7092 -120.7047 304° West 375 432 30,000 -1,300 Descending Seattle Center
Sun 03:48:41 AM 46.7650 -120.8278 304° West 367 422 27,900 -1,800 Descending Seattle Center
Sun 03:49:41 AM 46.8189 -120.9492 303° West 359 413 26,400 -1,350 Descending Seattle Center
Sun 03:50:41 AM 46.8719 -121.0672 303° West 350 403 25,200 -1,350 Descending Seattle Center
Sun 03:51:41 AM 46.9239 -121.1794 304° West 338 389 23,700 -1,600 Descending Seattle Center
Sun 03:52:41 AM 46.9719 -121.2886 303° West 324 373 22,000 -1,700 Descending Seattle Center
Sun 03:53:41 AM 47.0197 -121.3961 303° West 318 366 20,300 -1,714 Descending Seattle Center
Sun 03:53:58 AM 47.0358 -121.4311 304° West 317 365 19,800 -1,000 Descending Seattle Center
Sun 03:54:41 AM 47.0625 -121.4969 301° West 320 368 19,300 -896 Descending Seattle Center
Sun 03:55:05 AM 47.0864 -121.5464 305° West 285 328 18,800 -1,400 Descending Seattle Center
Sun 03:55:41 AM 47.1053 -121.5894 303° West 287 330 17,900 -1,279 Descending Seattle Center
Sun 03:56:06 AM 47.1314 -121.6417 306° West 286 329 17,500 -1,082 Descending Seattle Center
Sun 03:56:42 AM 47.1522 -121.6864 304° West 294 338 16,800 -1,500 Descending Seattle Center
Sun 03:57:06 AM 47.1772 -121.7403 304° West 295 339 16,000 -1,700 Descending Seattle Center
Sun 03:57:42 AM 47.1961 -121.7836 303° West 289 333 15,100 -1,869 Descending Seattle Center
Sun 03:58:07 AM 47.2231 -121.8389 306° West 287 330 14,100 -1,300 Descending Seattle Center
Sun 03:58:42 AM 47.2417 -121.8817 303° West 292 336 13,800 -900 Descending Seattle Center
Sun 03:59:07 AM 47.2686 -121.9378 305° West 292 336 13,200 -1,400 Descending Seattle Center
Sun 03:59:42 AM 47.2861 -121.9772 303° West 286 329 12,400 -1,180 Descending Seattle Center
Sun 04:00:08 AM 47.3108 -122.0322 304° West 283 326 12,000 -400 Descending Seattle Center
Sun 04:00:42 AM 47.3297 -122.0739 304° West 285 328 12,000 -590 Level Seattle Center
Sun 04:01:09 AM 47.3536 -122.1294 302° West 283 326 11,400 -1,400 Descending Seattle Center
Sun 04:01:42 AM 47.3836 -122.1783 312° West 270 311 10,600 -1,500 Descending Seattle Center
Sun 04:02:09 AM 47.4181 -122.1822 356° North 268 308 9,900 -1,100 Descending Seattle Center
Sun 04:02:42 AM 47.4572 -122.1822 360° North 270 311 9,500 -984 Descending Seattle Center
Sun 04:03:10 AM 47.4894 -122.1822 360° North 253 291 8,900 -1,600 Descending Seattle Center
Sun 04:03:42 AM 47.5256 -122.1797 North 252 290 7,900 -1,900 Descending Seattle Center
Sun 04:04:10 AM 47.5578 -122.1803 359° North 248 285 7,000 -1,600 Descending Seattle Center
Sun 04:04:42 AM 47.5964 -122.1786 North 251 289 6,300 -1,279 Descending Seattle Center
Sun 04:05:11 AM 47.6283 -122.1772 North 250 288 5,700 -1,100 Descending Seattle Center
Sun 04:05:42 AM 47.6631 -122.1836 353° North 243 280 5,200 -689 Descending Seattle Center
Sun 04:06:12 AM 47.6747 -122.2206 295° West 213 245 5,000 -400 Descending Seattle Center

Login

Don't have an account? Register now (free) for customized features, flight alerts, and more!